Time;durP1;ratioP1;P1;durP2;ratioP2;P2;SDS_P1;SDS_P2;PMS_P1;PMS_P2;Temp;Humidity;BMP_temperature;BMP_pressure;BME280_temperature;BME280_humidity;BME280_pressure;Samples;Min_cycle;Max_cycle;Signal;HPM_P1;HPM_P2
2021/10/12 00:01:40;;;;;;;13.40;1.90;;;;;;;6.97;100.00;101736.00;4966098;28;20545;-74
2021/10/12 00:04:06;;;;;;;8.65;1.65;;;;;;;7.08;100.00;101730.06;4952089;28;20106;-73
2021/10/12 00:06:32;;;;;;;9.27;1.73;;;;;;;7.10;100.00;101735.19;4965350;28;20034;-75
2021/10/12 00:08:58;;;;;;;4.43;1.48;;;;;;;7.12;100.00;101722.88;4936753;28;20088;-72
2021/10/12 00:11:24;;;;;;;8.80;1.58;;;;;;;7.11;100.00;101727.25;4951236;28;20518;-72
2021/10/12 00:13:50;;;;;;;11.27;1.73;;;;;;;7.16;100.00;101726.97;4949112;28;20042;-72
2021/10/12 00:16:15;;;;;;;15.70;1.75;;;;;;;7.25;100.00;101721.13;4967336;28;20124;-72
2021/10/12 00:18:41;;;;;;;12.60;1.88;;;;;;;7.24;100.00;101711.66;4952336;28;20039;-73
2021/10/12 00:21:10;;;;;;;12.65;1.83;;;;;;;7.26;100.00;101701.94;4957475;28;20046;-72
2021/10/12 00:23:35;;;;;;;12.30;1.70;;;;;;;7.28;100.00;101697.44;4963422;28;20043;-72
2021/10/12 00:26:01;;;;;;;13.52;1.70;;;;;;;7.29;100.00;101696.53;4939832;29;20492;-73
2021/10/12 00:28:27;;;;;;;5.53;1.50;;;;;;;7.33;100.00;101702.38;4933260;29;20110;-72
2021/10/12 00:30:52;;;;;;;11.15;1.60;;;;;;;7.40;100.00;101707.09;4919789;28;20447;-72
2021/10/12 00:33:18;;;;;;;15.10;1.63;;;;;;;7.45;100.00;101729.44;4951786;28;20034;-72
2021/10/12 00:35:43;;;;;;;16.02;1.80;;;;;;;7.49;100.00;101734.34;4918619;29;20081;-71
2021/10/12 00:38:09;;;;;;;9.30;2.00;;;;;;;7.57;100.00;101723.38;4948982;28;20043;-72
2021/10/12 00:40:37;;;;;;;18.25;2.40;;;;;;;7.61;100.00;101717.03;4918579;28;20065;-73
2021/10/12 00:43:03;;;;;;;10.70;1.90;;;;;;;7.63;100.00;101723.00;4965425;28;20211;-72
2021/10/12 00:45:30;;;;;;;12.48;2.08;;;;;;;7.65;100.00;101715.03;4935914;28;20038;-72
2021/10/12 00:48:02;;;;;;;14.98;2.08;;;;;;;7.68;100.00;101712.22;4963618;28;20046;-72
2021/10/12 00:50:29;;;;;;;16.88;2.25;;;;;;;7.74;100.00;101699.59;4946247;28;20046;-72
2021/10/12 00:52:54;;;;;;;12.93;2.30;;;;;;;7.69;100.00;101709.50;4967244;28;20047;-72
2021/10/12 00:55:21;;;;;;;8.68;1.80;;;;;;;7.70;100.00;101713.78;4930075;28;20039;-73
2021/10/12 00:57:46;;;;;;;11.05;2.05;;;;;;;7.67;100.00;101702.72;4960583;28;20510;-72
2021/10/12 01:00:12;;;;;;;15.07;2.13;;;;;;;7.68;100.00;101710.44;4969870;28;20047;-72
2021/10/12 01:02:38;;;;;;;14.52;2.50;;;;;;;7.64;100.00;101706.38;4946544;29;20463;-73
2021/10/12 01:05:05;;;;;;;8.23;2.10;;;;;;;7.66;100.00;101712.31;4950764;28;20042;-73
2021/10/12 01:07:31;;;;;;;7.72;1.70;;;;;;;7.71;100.00;101709.41;4948234;28;20031;-72
2021/10/12 01:09:59;;;;;;;17.10;1.85;;;;;;;7.69;100.00;101716.53;4912182;29;20031;-73
2021/10/12 01:12:25;;;;;;;14.88;2.20;;;;;;;7.69;100.00;101727.78;4960014;28;20031;-73
2021/10/12 01:14:50;;;;;;;13.18;1.95;;;;;;;7.75;100.00;101724.75;4952400;28;20042;-72
2021/10/12 01:17:16;;;;;;;10.98;1.95;;;;;;;7.78;100.00;101713.28;4948522;29;20043;-73
2021/10/12 01:19:45;;;;;;;16.25;2.25;;;;;;;7.73;100.00;101705.75;4947166;28;20121;-72
2021/10/12 01:22:10;;;;;;;9.65;2.28;;;;;;;7.76;100.00;101705.53;4959950;28;20479;-72
2021/10/12 01:24:36;;;;;;;15.98;2.75;;;;;;;7.76;100.00;101700.31;4956804;28;20105;-72
2021/10/12 01:27:01;;;;;;;15.90;2.47;;;;;;;7.74;100.00;101696.97;4967512;28;20066;-72
2021/10/12 01:29:27;;;;;;;12.63;2.60;;;;;;;7.71;100.00;101689.34;4921319;28;20035;-73
2021/10/12 01:31:52;;;;;;;10.80;2.67;;;;;;;7.85;100.00;101690.19;4949963;28;20037;-74
2021/10/12 01:34:20;;;;;;;13.13;3.55;;;;;;;7.82;100.00;101682.53;4935514;28;20050;-73
2021/10/12 01:36:47;;;;;;;12.48;2.90;;;;;;;7.82;100.00;101690.38;4935288;28;20039;-73
2021/10/12 01:39:13;;;;;;;9.05;2.85;;;;;;;7.78;100.00;101688.00;4936414;28;20477;-73
2021/10/12 01:41:39;;;;;;;13.02;2.90;;;;;;;7.82;100.00;101690.38;4934239;28;20034;-73
2021/10/12 01:44:05;;;;;;;14.50;2.80;;;;;;;7.80;100.00;101683.50;4951950;28;20038;-73
2021/10/12 01:46:31;;;;;;;10.02;2.80;;;;;;;7.80;100.00;101680.06;4953136;28;20381;-73
2021/10/12 01:48:56;;;;;;;10.00;2.72;;;;;;;7.76;100.00;101676.81;4948731;29;20046;-73
2021/10/12 01:51:22;;;;;;;14.85;3.33;;;;;;;7.77;100.00;101690.69;4956908;28;20042;-72
2021/10/12 01:53:47;;;;;;;11.07;3.25;;;;;;;7.78;100.00;101685.38;4969679;28;20053;-73
2021/10/12 01:56:13;;;;;;;7.72;2.95;;;;;;;7.79;100.00;101680.97;4924956;29;20050;-73
2021/10/12 01:58:38;;;;;;;11.43;3.33;;;;;;;7.76;100.00;101676.81;4950546;28;20126;-73
2021/10/12 02:01:05;;;;;;;10.10;3.30;;;;;;;7.71;100.00;101660.63;4945011;28;20039;-73
2021/10/12 02:03:30;;;;;;;8.18;3.22;;;;;;;7.75;100.00;101641.19;4917081;28;20046;-71
2021/10/12 02:05:56;;;;;;;8.40;2.75;;;;;;;7.74;100.00;101630.84;4932957;29;20039;-73
2021/10/12 02:08:22;;;;;;;9.27;2.67;;;;;;;7.77;100.00;101628.03;4932329;28;20038;-73
2021/10/12 02:10:47;;;;;;;6.50;2.33;;;;;;;7.76;100.00;101627.19;4908498;29;20061;-73
2021/10/12 02:13:13;;;;;;;6.82;3.05;;;;;;;7.77;100.00;101604.53;4955151;28;20061;-71
2021/10/12 02:15:38;;;;;;;10.23;2.42;;;;;;;7.75;100.00;101599.41;4957982;28;20049;-73
2021/10/12 02:18:04;;;;;;;8.55;2.05;;;;;;;7.70;100.00;101582.38;4937195;28;20122;-73
2021/10/12 02:20:30;;;;;;;3.92;1.73;;;;;;;7.66;100.00;101575.72;4938493;28;20043;-72
2021/10/12 02:22:55;;;;;;;7.40;2.00;;;;;;;7.59;100.00;101565.69;4974280;28;20503;-73
2021/10/12 02:25:21;;;;;;;5.68;1.55;;;;;;;7.52;100.00;101567.06;4962423;28;20035;-73
2021/10/12 02:27:46;;;;;;;4.78;1.60;;;;;;;7.42;100.00;101568.63;4961085;28;20035;-73
2021/10/12 02:30:12;;;;;;;7.60;1.73;;;;;;;7.29;100.00;101549.53;4972929;28;20039;-73
2021/10/12 02:32:38;;;;;;;5.40;1.42;;;;;;;7.24;100.00;101551.63;4928505;29;20039;-73
2021/10/12 02:35:05;;;;;;;4.88;1.40;;;;;;;7.17;100.00;101559.88;4935702;29;20039;-73
2021/10/12 02:37:30;;;;;;;3.65;1.63;;;;;;;7.09;100.00;101545.69;4928828;28;20436;-72
2021/10/12 02:39:56;;;;;;;5.88;1.80;;;;;;;7.00;100.00;101557.56;4955017;28;20030;-73
2021/10/12 02:42:21;;;;;;;5.55;1.70;;;;;;;6.94;100.00;101553.59;4962657;28;20220;-73
2021/10/12 02:44:47;;;;;;;5.90;1.85;;;;;;;6.82;100.00;101550.03;4943927;28;20769;-73
2021/10/12 02:47:12;;;;;;;4.55;1.60;;;;;;;6.76;100.00;101547.84;4970589;28;20027;-73
2021/10/12 02:49:38;;;;;;;4.47;2.20;;;;;;;6.72;100.00;101545.53;4939111;28;20567;-73
2021/10/12 02:52:04;;;;;;;3.90;2.05;;;;;;;6.72;100.00;101545.53;4960751;28;20030;-73
2021/10/12 02:54:30;;;;;;;3.90;1.88;;;;;;;6.69;100.00;101556.19;4954632;28;20039;-72
2021/10/12 02:56:56;;;;;;;6.47;2.05;;;;;;;6.72;100.00;101533.31;4921814;28;20037;-72
2021/10/12 02:59:21;;;;;;;5.43;2.30;;;;;;;6.76;100.00;101536.56;4970847;28;20109;-72
2021/10/12 03:01:47;;;;;;;7.03;2.45;;;;;;;6.88;100.00;101540.16;4939731;28;20540;-73
2021/10/12 03:04:14;;;;;;;6.72;2.13;;;;;;;6.94;100.00;101548.38;4944149;28;20035;-72
2021/10/12 03:06:40;;;;;;;7.03;1.75;;;;;;;7.05;100.00;101537.22;4938609;28;20039;-73
2021/10/12 03:09:05;;;;;;;5.05;1.42;;;;;;;7.10;100.00;101534.28;4947837;28;20473;-72
2021/10/12 03:11:31;;;;;;;5.00;1.38;;;;;;;7.09;100.00;101530.84;4970796;28;20034;-73
2021/10/12 03:13:56;;;;;;;3.17;1.15;;;;;;;7.13;100.00;101537.53;4971917;28;20035;-72
2021/10/12 03:16:22;;;;;;;5.25;0.90;;;;;;;7.14;100.00;101536.59;4971371;28;20045;-73
2021/10/12 03:18:47;;;;;;;3.05;0.80;;;;;;;7.12;100.00;101537.63;4971731;28;20491;-73
2021/10/12 03:21:14;;;;;;;3.55;0.80;;;;;;;7.14;100.00;101531.38;4937799;28;20123;-73
2021/10/12 03:23:41;;;;;;;2.95;0.77;;;;;;;7.21;100.00;101532.66;4936219;28;20130;-72
2021/10/12 03:26:06;;;;;;;2.00;0.80;;;;;;;7.20;100.00;101530.97;4971495;28;20035;-73
2021/10/12 03:28:32;;;;;;;2.90;0.80;;;;;;;7.28;100.00;101532.22;4970189;28;20042;-73
2021/10/12 03:30:57;;;;;;;4.18;0.55;;;;;;;7.26;100.00;101529.72;4951315;28;20061;-72
2021/10/12 03:33:23;;;;;;;2.55;0.70;;;;;;;7.26;100.00;101518.44;4952236;28;20035;-72
2021/10/12 03:35:59;;;;;;;5.38;0.80;;;;;;;7.26;100.00;101521.06;4960817;28;20035;-73
2021/10/12 03:38:27;;;;;;;4.32;0.50;;;;;;;7.29;100.00;101518.22;4953562;28;20031;-72
2021/10/12 03:40:53;;;;;;;1.30;0.70;;;;;;;7.25;100.00;101512.38;4953778;28;20043;-72
2021/10/12 03:43:20;;;;;;;4.40;0.65;;;;;;;7.28;100.00;101516.56;4953471;28;20043;-72
2021/10/12 03:45:46;;;;;;;8.38;0.70;;;;;;;7.22;100.00;101505.59;4935020;29;20073;-72
2021/10/12 03:48:12;;;;;;;2.00;0.50;;;;;;;7.19;100.00;101502.34;4931891;28;20058;-72
2021/10/12 03:50:38;;;;;;;3.50;0.50;;;;;;;7.17;100.00;101493.81;4938419;28;20458;-72
2021/10/12 03:53:04;;;;;;;1.92;0.45;;;;;;;7.13;100.00;101494.97;4971495;28;20085;-72
2021/10/12 03:55:29;;;;;;;3.58;0.70;;;;;;;7.05;100.00;101494.66;4935587;28;20042;-72
2021/10/12 03:57:55;;;;;;;2.70;0.50;;;;;;;7.04;100.00;101485.97;4951442;29;20122;-72
2021/10/12 04:00:20;;;;;;;2.13;0.68;;;;;;;7.00;100.00;101494.97;4951009;28;20039;-72
2021/10/12 04:02:46;;;;;;;2.28;0.47;;;;;;;6.95;100.00;101497.91;4950542;28;20433;-72
2021/10/12 04:05:12;;;;;;;0.85;0.47;;;;;;;6.93;100.00;101491.97;4944257;28;20038;-74
2021/10/12 04:07:37;;;;;;;3.05;0.75;;;;;;;6.86;100.00;101497.69;4970178;28;20046;-71
2021/10/12 04:10:04;;;;;;;5.50;0.60;;;;;;;6.83;100.00;101496.09;4950407;28;20508;-72
2021/10/12 04:12:29;;;;;;;3.33;0.70;;;;;;;6.88;100.00;101488.81;4970087;28;20045;-73
2021/10/12 04:14:55;;;;;;;2.85;0.50;;;;;;;6.86;100.00;101480.28;4951935;28;20118;-72
2021/10/12 04:17:20;;;;;;;2.50;0.70;;;;;;;6.85;100.00;101472.53;4951907;28;20464;-72
2021/10/12 04:19:46;;;;;;;5.30;0.65;;;;;;;6.80;100.00;101467.66;4917696;29;20041;-72
2021/10/12 04:22:12;;;;;;;2.65;0.60;;;;;;;6.81;100.00;101461.47;4964757;28;20114;-72
2021/10/12 04:24:40;;;;;;;3.13;0.60;;;;;;;6.79;100.00;101465.97;4949949;28;20118;-72
2021/10/12 04:27:06;;;;;;;1.42;0.60;;;;;;;6.78;100.00;101456.47;4918066;29;20035;-72
2021/10/12 04:29:32;;;;;;;3.85;0.70;;;;;;;6.73;100.00;101459.41;4922531;28;20031;-72
2021/10/12 04:32:01;;;;;;;3.30;0.63;;;;;;;6.74;100.00;101457.63;4969365;28;20373;-72
2021/10/12 04:34:27;;;;;;;3.38;0.93;;;;;;;6.71;100.00;101461.28;4936593;28;20030;-72
2021/10/12 04:36:57;;;;;;;4.85;0.90;;;;;;;6.73;100.00;101464.63;4969305;28;20066;-74
2021/10/12 04:39:23;;;;;;;1.85;0.70;;;;;;;6.71;100.00;101463.88;4935354;28;20177;-74
2021/10/12 04:41:51;;;;;;;3.15;0.77;;;;;;;6.70;100.00;101461.38;4979838;28;20120;-72
2021/10/12 04:44:17;;;;;;;4.03;0.77;;;;;;;6.69;100.00;101455.34;4959906;28;20079;-72
2021/10/12 04:46:44;;;;;;;3.47;0.80;;;;;;;6.67;100.00;101453.75;4940884;28;20130;-72
2021/10/12 04:49:09;;;;;;;6.55;0.93;;;;;;;6.57;100.00;101454.41;4968883;28;20517;-72
2021/10/12 04:51:35;;;;;;;4.55;0.90;;;;;;;6.49;100.00;101455.84;4946680;28;20038;-73
2021/10/12 04:54:02;;;;;;;4.30;0.80;;;;;;;6.45;100.00;101455.19;4948481;28;20520;-72
2021/10/12 04:56:28;;;;;;;3.38;0.75;;;;;;;6.41;100.00;101454.56;4933524;29;20115;-71
2021/10/12 04:58:54;;;;;;;4.43;0.70;;;;;;;6.37;100.00;101458.31;4936124;28;20039;-72
2021/10/12 05:01:19;;;;;;;1.52;0.90;;;;;;;6.33;100.00;101453.41;4948670;28;20049;-73
2021/10/12 05:03:45;;;;;;;5.78;0.90;;;;;;;6.30;100.00;101451.84;4967218;28;20035;-72
2021/10/12 05:06:10;;;;;;;4.72;1.00;;;;;;;6.29;100.00;101449.34;4932732;29;20062;-72
2021/10/12 05:08:36;;;;;;;5.35;0.95;;;;;;;6.23;100.00;101450.56;4932816;28;20039;-72
2021/10/12 05:11:01;;;;;;;4.65;1.10;;;;;;;6.19;100.00;101452.53;4918018;29;20039;-72
2021/10/12 05:13:27;;;;;;;2.50;1.00;;;;;;;6.16;100.00;101441.47;4949701;28;20519;-72
2021/10/12 05:15:53;;;;;;;4.90;1.20;;;;;;;6.13;100.00;101441.69;4935445;28;20041;-73
2021/10/12 05:18:23;;;;;;;4.32;1.40;;;;;;;6.15;100.00;101450.25;4950925;28;20523;-72
2021/10/12 05:20:49;;;;;;;9.00;1.45;;;;;;;6.14;100.00;101454.63;4955778;28;20161;-72
2021/10/12 05:23:16;;;;;;;7.07;1.55;;;;;;;6.14;100.00;101443.34;4946434;28;20476;-72
2021/10/12 05:25:45;;;;;;;5.00;1.90;;;;;;;6.06;100.00;101446.47;4959433;28;20142;-70
2021/10/12 05:28:11;;;;;;;9.02;1.70;;;;;;;6.07;100.00;101455.97;4959481;28;20073;-72
2021/10/12 05:30:40;;;;;;;8.07;2.00;;;;;;;6.02;100.00;101450.22;4952701;28;20043;-72
2021/10/12 05:33:13;;;;;;;9.20;2.40;;;;;;;5.98;100.00;101448.75;4934626;28;20034;-73
2021/10/12 05:35:39;;;;;;;6.10;2.33;;;;;;;5.89;100.00;101444.09;4954010;28;20041;-72
2021/10/12 05:38:04;;;;;;;4.55;2.35;;;;;;;5.84;100.00;101445.22;4950690;28;20403;-72
2021/10/12 05:40:30;;;;;;;6.53;2.60;;;;;;;5.79;100.00;101451.66;4920982;28;20043;-72
2021/10/12 05:42:56;;;;;;;7.22;2.25;;;;;;;5.79;100.00;101451.66;4970827;28;20034;-72
2021/10/12 05:45:21;;;;;;;5.30;2.55;;;;;;;5.79;100.00;101447.28;4951587;28;20508;-72
2021/10/12 05:47:47;;;;;;;7.20;2.50;;;;;;;5.82;100.00;101452.31;4948796;28;20034;-72
2021/10/12 05:50:12;;;;;;;8.00;2.78;;;;;;;5.88;100.00;101455.44;4955451;28;20039;-72
2021/10/12 05:52:40;;;;;;;9.95;2.83;;;;;;;5.92;100.00;101442.13;4964589;28;20080;-72
2021/10/12 05:55:10;;;;;;;5.13;2.90;;;;;;;6.04;100.00;101448.34;4964108;28;20027;-71
2021/10/12 05:57:41;;;;;;;11.50;3.10;;;;;;;6.08;100.00;101449.81;4971766;28;20499;-72
2021/10/12 06:00:07;;;;;;;10.15;2.80;;;;;;;6.23;100.00;101450.56;4963732;28;20047;-72
2021/10/12 06:02:38;;;;;;;10.10;2.97;;;;;;;6.21;100.00;101445.44;4972220;28;20045;-72
2021/10/12 06:05:03;;;;;;;7.05;3.33;;;;;;;6.30;100.00;101453.63;4954011;28;20392;-72
2021/10/12 06:07:29;;;;;;;7.32;3.50;;;;;;;6.42;100.00;101458.00;4972805;28;20403;-73
2021/10/12 06:09:54;;;;;;;10.95;3.90;;;;;;;6.67;100.00;101454.59;4939475;28;20070;-72
2021/10/12 06:12:20;;;;;;;9.15;4.03;;;;;;;6.80;100.00;101457.22;4968302;28;20042;-72
2021/10/12 06:14:45;;;;;;;11.20;4.43;;;;;;;6.94;100.00;101472.75;4957854;28;20063;-72
2021/10/12 06:17:12;;;;;;;14.95;4.65;;;;;;;7.13;100.00;101476.69;4939458;28;20562;-72
2021/10/12 06:19:37;;;;;;;10.70;4.18;;;;;;;7.26;100.00;101474.91;4972209;28;20050;-72
2021/10/12 06:22:03;;;;;;;11.52;4.47;;;;;;;7.38;100.00;101478.44;4959450;28;20034;-72
2021/10/12 06:24:28;;;;;;;9.93;3.92;;;;;;;7.45;100.00;101478.84;4952299;28;20093;-73
2021/10/12 06:26:54;;;;;;;10.18;4.05;;;;;;;7.49;100.00;101481.13;4971599;28;20400;-72
2021/10/12 06:29:19;;;;;;;6.65;4.15;;;;;;;7.53;100.00;101479.13;4968580;28;20053;-71
2021/10/12 06:31:45;;;;;;;13.82;4.38;;;;;;;7.50;100.00;101487.19;4957888;28;20655;-72
2021/10/12 06:34:10;;;;;;;10.68;4.00;;;;;;;7.38;100.00;101481.91;4954981;28;20134;-72
2021/10/12 06:36:39;;;;;;;14.43;4.72;;;;;;;7.37;100.00;101489.81;4954913;28;20389;-71
2021/10/12 06:39:04;;;;;;;9.65;3.67;;;;;;;7.40;100.00;101484.38;4938697;28;20061;-72
2021/10/12 06:41:30;;;;;;;5.35;3.35;;;;;;;7.44;100.00;101493.69;4954232;28;20073;-72
2021/10/12 06:43:55;;;;;;;5.60;3.70;;;;;;;7.57;100.00;101494.47;4968694;28;20073;-72
2021/10/12 06:46:20;;;;;;;12.32;3.90;;;;;;;7.65;100.00;101493.94;4967256;28;20085;-73
2021/10/12 06:48:46;;;;;;;7.20;3.47;;;;;;;7.74;100.00;101498.50;4955907;28;20093;-72
2021/10/12 06:51:11;;;;;;;8.00;3.42;;;;;;;7.87;100.00;101493.22;4960134;28;20114;-73
2021/10/12 06:53:40;;;;;;;8.15;3.47;;;;;;;7.93;100.00;101497.16;4951646;28;20043;-72
2021/10/12 06:56:05;;;;;;;9.52;3.78;;;;;;;7.96;100.00;101492.53;4960968;28;20109;-71
2021/10/12 06:58:31;;;;;;;16.73;3.55;;;;;;;8.07;100.00;101497.00;4969139;28;20573;-72
2021/10/12 07:00:56;;;;;;;13.85;4.35;;;;;;;8.14;100.00;101495.63;4944749;28;20597;-73
2021/10/12 07:03:22;;;;;;;11.13;3.25;;;;;;;8.18;100.00;101499.66;4973527;28;20113;-72
2021/10/12 07:05:47;;;;;;;18.20;3.55;;;;;;;8.32;100.00;101503.03;4978534;28;20399;-72
2021/10/12 07:08:13;;;;;;;18.33;3.28;;;;;;;8.45;100.00;101503.84;4981489;28;20035;-72
2021/10/12 07:10:38;;;;;;;12.70;3.15;;;;;;;8.54;100.00;101494.47;4956639;28;20035;-72
2021/10/12 07:13:04;;;;;;;10.85;2.30;;;;;;;8.59;100.00;101502.81;4948748;28;20034;-72
2021/10/12 07:15:29;;;;;;;18.38;2.85;;;;;;;8.56;100.00;101513.50;4971199;28;20043;-74
2021/10/12 07:17:55;;;;;;;15.32;2.45;;;;;;;8.54;100.00;101516.22;4971442;28;20133;-72
2021/10/12 07:20:20;;;;;;;9.43;1.80;;;;;;;8.61;100.00;101505.28;4960563;28;20097;-71
2021/10/12 07:22:46;;;;;;;11.05;2.00;;;;;;;8.61;100.00;101510.53;4954130;28;20048;-74
2021/10/12 07:25:11;;;;;;;10.35;1.77;;;;;;;8.65;100.00;101510.19;4939886;29;20043;-71
2021/10/12 07:27:37;;;;;;;9.30;1.83;;;;;;;8.64;100.00;101516.38;4935265;29;20122;-72
2021/10/12 07:30:03;;;;;;;13.27;1.75;;;;;;;8.70;100.00;101509.84;4937206;28;20031;-72
2021/10/12 07:32:29;;;;;;;11.65;2.05;;;;;;;8.74;100.00;101509.50;4969916;28;20037;-72
2021/10/12 07:34:54;;;;;;;9.05;1.45;;;;;;;8.75;100.00;101513.78;4934333;28;20058;-73
2021/10/12 07:37:20;;;;;;;7.75;1.60;;;;;;;8.72;100.00;101507.94;4934889;29;20047;-73
2021/10/12 07:39:45;;;;;;;11.27;2.10;;;;;;;8.81;100.00;101515.09;4969963;28;20041;-72
2021/10/12 07:42:12;;;;;;;6.25;1.30;;;;;;;8.89;100.00;101512.75;4982276;28;20046;-73
2021/10/12 07:44:41;;;;;;;13.55;1.40;;;;;;;8.81;100.00;101515.09;4958792;28;20079;-72
2021/10/12 07:47:07;;;;;;;9.68;1.20;;;;;;;8.83;100.00;101507.13;4951839;28;20126;-73
2021/10/12 07:49:34;;;;;;;13.13;1.80;;;;;;;8.90;100.00;101516.19;4965564;28;20503;-72
2021/10/12 07:52:06;;;;;;;7.15;0.90;;;;;;;8.84;100.00;101509.63;4939040;28;20049;-71
2021/10/12 07:55:00;;;;;;;14.15;1.08;;;;;;;8.81;100.00;101503.81;4972202;28;20110;-75
2021/10/12 07:57:25;;;;;;;11.45;1.08;;;;;;;8.73;100.00;101513.06;4969282;28;20566;-73
2021/10/12 07:59:51;;;;;;;11.63;1.13;;;;;;;8.73;100.00;101515.69;4974782;28;20107;-72
2021/10/12 08:02:16;;;;;;;8.82;1.33;;;;;;;8.92;100.00;101514.28;4965895;28;20030;-73
2021/10/12 08:04:42;;;;;;;9.38;1.15;;;;;;;8.90;100.00;101510.97;4936707;28;20585;-74
2021/10/12 08:07:09;;;;;;;10.30;1.58;;;;;;;8.93;100.00;101518.59;4970810;28;20034;-74
2021/10/12 08:09:35;;;;;;;10.27;1.30;;;;;;;9.00;100.00;101511.91;4959707;28;20161;-74
2021/10/12 08:12:03;;;;;;;8.05;1.35;;;;;;;9.07;100.00;101518.34;4953296;28;20109;-73
2021/10/12 08:14:28;;;;;;;9.35;1.40;;;;;;;9.24;100.00;101522.28;4951944;28;20111;-73
2021/10/12 08:16:54;;;;;;;11.90;1.30;;;;;;;9.08;100.00;101521.78;4953516;28;20129;-73
2021/10/12 08:19:19;;;;;;;7.53;1.20;;;;;;;9.13;100.00;101525.72;4924703;29;20182;-72
2021/10/12 08:21:45;;;;;;;7.82;1.75;;;;;;;9.14;100.00;101514.31;4950816;28;20042;-73
2021/10/12 08:24:12;;;;;;;5.95;0.90;;;;;;;9.24;100.00;101516.22;4965002;28;20031;-72
2021/10/12 08:26:39;;;;;;;6.82;1.02;;;;;;;9.16;100.00;101520.25;4952440;28;20092;-73
2021/10/12 08:29:05;;;;;;;12.43;1.20;;;;;;;9.28;100.00;101517.66;4936327;28;20042;-72
2021/10/12 08:31:31;;;;;;;11.02;1.27;;;;;;;9.22;100.00;101524.19;4966002;28;20686;-71
2021/10/12 08:33:56;;;;;;;7.40;1.52;;;;;;;9.23;98.10;101515.41;4970657;28;20039;-73
2021/10/12 08:36:22;;;;;;;8.68;1.58;;;;;;;9.24;99.87;101503.13;4970238;28;20042;-73
2021/10/12 08:38:53;;;;;;;9.77;1.40;;;;;;;9.14;100.00;101516.94;4970064;28;20066;-73
2021/10/12 08:41:24;;;;;;;8.35;1.30;;;;;;;9.16;100.00;101509.78;4970343;28;20035;-73
2021/10/12 08:43:49;;;;;;;7.40;1.30;;;;;;;9.17;100.00;101502.75;4920988;28;20053;-72
2021/10/12 08:46:15;;;;;;;3.60;0.90;;;;;;;9.35;99.88;101503.97;4952645;28;20042;-72
2021/10/12 08:48:41;;;;;;;7.00;0.98;;;;;;;9.24;97.46;101503.97;4935046;28;20043;-71
2021/10/12 08:51:06;;;;;;;7.18;1.00;;;;;;;9.45;99.30;101498.81;4969585;28;20159;-72
2021/10/12 08:53:33;;;;;;;2.65;0.68;;;;;;;9.58;96.31;101503.09;4961911;28;20054;-72
2021/10/12 08:56:00;;;;;;;6.63;0.98;;;;;;;9.61;100.00;101503.69;4964329;28;20022;-72
2021/10/12 08:58:26;;;;;;;9.38;1.00;;;;;;;9.59;100.00;101508.22;4989157;28;20045;-72
2021/10/12 09:01:13;;;;;;;9.57;0.88;;;;;;;9.57;97.33;101507.53;4971479;28;20034;-72
2021/10/12 09:03:58;;;;;;;6.90;0.90;;;;;;;9.61;98.20;101511.56;4963125;28;20039;-73
2021/10/12 09:06:34;;;;;;;7.68;1.20;;;;;;;9.70;95.28;101523.94;4935596;28;20038;-72
2021/10/12 09:09:04;;;;;;;5.95;0.93;;;;;;;9.63;94.14;101514.06;4952454;28;20547;-73
2021/10/12 09:11:34;;;;;;;4.55;0.93;;;;;;;9.51;90.66;101508.84;4952342;28;20045;-72
2021/10/12 09:14:05;;;;;;;6.45;1.10;;;;;;;9.51;98.44;101500.13;4968846;28;20042;-71
2021/10/12 09:16:43;;;;;;;4.88;0.90;;;;;;;9.67;93.97;101512.88;4936470;28;20065;-73
2021/10/12 09:19:14;;;;;;;7.60;1.23;;;;;;;9.64;93.10;101508.69;4920621;28;20079;-74
2021/10/12 09:21:44;;;;;;;6.38;0.77;;;;;;;9.73;95.37;101512.38;4951014;28;20040;-72
2021/10/12 09:24:18;;;;;;;8.07;1.10;;;;;;;9.68;90.75;101510.13;4965307;28;20046;-74
2021/10/12 09:27:05;;;;;;;4.68;0.80;;;;;;;9.66;92.54;101508.56;4971785;28;20178;-74
2021/10/12 09:31:59;;;;;;;11.90;0.80;;;;;;;9.78;92.73;101501.53;4951986;28;20035;-73
2021/10/12 09:34:28;;;;;;;8.05;1.00;;;;;;;9.88;94.57;101507.69;4944943;29;20085;-73
2021/10/12 09:36:54;;;;;;;7.50;1.27;;;;;;;9.98;94.33;101505.97;4951842;28;20126;-75
2021/10/12 09:39:39;;;;;;;8.10;0.90;;;;;;;10.07;100.00;101510.47;4919562;28;20137;-74
2021/10/12 09:42:16;;;;;;;10.82;0.93;;;;;;;10.19;92.19;101506.06;4935917;28;20046;-73
2021/10/12 09:44:54;;;;;;;8.05;1.30;;;;;;;10.33;85.04;101500.53;4969520;28;20031;-73
2021/10/12 09:47:21;;;;;;;5.38;1.05;;;;;;;10.31;88.51;101496.38;4952115;28;20073;-73
2021/10/12 09:49:47;;;;;;;13.48;1.25;;;;;;;10.32;92.94;101505.88;4952322;28;20388;-73
2021/10/12 09:52:17;;;;;;;8.20;1.02;;;;;;;10.28;94.51;101500.06;4951489;28;20074;-73
2021/10/12 09:54:57;;;;;;;7.47;1.10;;;;;;;10.38;94.25;101497.53;4953775;28;20034;-73
2021/10/12 09:57:27;;;;;;;11.50;0.93;;;;;;;10.45;89.93;101500.47;4971386;28;20058;-73
2021/10/12 09:59:53;;;;;;;16.33;1.55;;;;;;;10.43;84.00;101495.34;4971272;28;20129;-74
2021/10/12 10:02:21;;;;;;;6.38;0.88;;;;;;;10.51;94.64;101503.44;4971237;28;20539;-72
2021/10/12 10:04:47;;;;;;;10.52;1.00;;;;;;;10.57;85.12;101506.47;4970974;28;20157;-74
2021/10/12 10:07:29;;;;;;;7.22;0.93;;;;;;;10.49;84.21;101496.63;4955302;28;20159;-73
2021/10/12 10:09:56;;;;;;;4.88;1.15;;;;;;;10.68;88.08;101501.16;4970137;28;20034;-72
2021/10/12 10:12:22;;;;;;;4.50;1.10;;;;;;;10.77;94.45;101502.19;4968996;28;20432;-72
2021/10/12 10:14:47;;;;;;;6.13;1.17;;;;;;;10.80;85.40;101507.19;4934807;28;20045;-73
2021/10/12 10:17:13;;;;;;;9.65;1.05;;;;;;;10.86;90.00;101506.69;4983196;28;20038;-74
2021/10/12 10:19:44;;;;;;;8.32;1.23;;;;;;;10.73;86.78;101501.63;4971393;28;20042;-74
2021/10/12 10:22:50;;;;;;;4.82;0.90;;;;;;;10.67;82.87;101496.91;4961965;28;20831;-75
2021/10/12 10:25:32;;;;;;;5.13;0.73;;;;;;;10.62;85.22;101494.63;4969421;28;20105;-74
2021/10/12 10:28:18;;;;;;;5.60;0.90;;;;;;;10.69;85.46;101498.41;4952139;28;20037;-73
2021/10/12 10:30:57;;;;;;;9.45;1.00;;;;;;;10.81;85.22;101495.72;4923034;28;20105;-73
2021/10/12 10:33:31;;;;;;;8.20;0.90;;;;;;;10.69;87.14;101503.66;4970794;28;20487;-72
2021/10/12 10:36:02;;;;;;;6.63;1.30;;;;;;;10.77;96.04;101503.03;4971399;28;20043;-74
2021/10/12 10:38:37;;;;;;;6.57;1.20;;;;;;;10.79;84.47;101505.53;4955250;28;20049;-72
2021/10/12 10:41:05;;;;;;;7.53;1.02;;;;;;;10.73;81.24;101500.78;4955450;28;20030;-72
2021/10/12 10:43:55;;;;;;;6.57;0.57;;;;;;;10.78;82.92;101501.25;4972407;28;20046;-73
2021/10/12 10:46:30;;;;;;;5.88;0.75;;;;;;;10.91;81.05;101502.69;4972080;28;20042;-73
2021/10/12 10:49:09;;;;;;;6.82;0.93;;;;;;;10.92;84.13;101506.16;4939142;28;20039;-73
2021/10/12 10:51:51;;;;;;;6.57;0.90;;;;;;;10.91;81.89;101502.69;4960137;28;20034;-72
2021/10/12 10:55:04;;;;;;;7.20;0.90;;;;;;;10.94;84.99;101498.16;4955242;28;20078;-71
2021/10/12 10:57:31;;;;;;;5.45;1.10;;;;;;;10.78;83.52;101502.06;4955176;28;20105;-74
2021/10/12 11:00:11;;;;;;;6.97;1.00;;;;;;;10.94;87.04;101504.22;4968067;28;20030;-73
2021/10/12 11:02:37;;;;;;;4.57;0.82;;;;;;;11.09;79.38;101502.94;4990894;28;20096;-73
2021/10/12 11:05:03;;;;;;;10.25;1.10;;;;;;;11.06;82.58;101505.00;4940734;28;20448;-73
2021/10/12 11:07:29;;;;;;;7.10;0.98;;;;;;;11.03;83.68;101505.25;4939309;28;20038;-73
2021/10/12 11:09:57;;;;;;;6.03;1.00;;;;;;;11.16;80.30;101492.72;4925307;28;20040;-73
2021/10/12 11:12:27;;;;;;;8.68;1.38;;;;;;;11.17;82.34;101499.66;4955910;28;20118;-73
2021/10/12 11:14:54;;;;;;;5.25;0.85;;;;;;;11.08;86.96;101495.19;4966647;28;20045;-73
2021/10/12 11:17:19;;;;;;;10.43;1.52;;;;;;;11.22;77.62;101496.63;4971394;28;20071;-73
2021/10/12 11:20:17;;;;;;;7.00;0.95;;;;;;;11.39;77.02;101495.16;4949718;28;20035;-73
2021/10/12 11:22:43;;;;;;;7.95;1.50;;;;;;;11.59;77.49;101483.75;4962862;28;20496;-73
2021/10/12 11:25:11;;;;;;;8.95;1.33;;;;;;;11.62;82.25;101490.50;4922679;28;20074;-73
2021/10/12 11:27:44;;;;;;;7.45;1.08;;;;;;;11.56;75.27;101498.94;4956579;28;20066;-71
2021/10/12 11:30:15;;;;;;;10.00;1.33;;;;;;;11.40;76.59;101496.84;4921210;28;20038;-73